Liverpool, New York
Current Conditions -  °F | °C
As of 3:54 PM on Thursday 20 Nov 2014 (Local Time) from KSYR Reporting Station
Light Snow Light Snow  
Wind Chill: 17°   Ceiling: 3700
Heat Index: 29°   Visibility: 4mi
Dew Point: 14°   Wind: 16mph
Humidity: 54%   Direction: 280°W
Pressure: 29.86"   Gusts: 26mph
Location:  43.11°N, 76.21°W
Report Text: KSYR 202054Z 28014G23KT 4SM -SN BKN037 OVC050 M02/M10 A2986 RMK AO2 SNB49 SLP114 P0000 60000 T10171100 53004 $
Loading
Personal Weather Stations






























Interactive Weather Map New forecast layout! Learn more

10-Day Weather Forecast

Advertisements
Track Severe Weather on mobile